createdAt,value
2019-03-31T00:00:10.099Z,1011.85
2019-03-31T00:01:10.022Z,1011.86
2019-03-31T00:02:10.001Z,1011.83
2019-03-31T00:03:09.979Z,1011.88
2019-03-31T00:04:10.012Z,1011.86
2019-03-31T00:05:09.971Z,1011.88
2019-03-31T00:06:10.047Z,1011.81
2019-03-31T00:07:09.923Z,1011.81
2019-03-31T00:08:09.929Z,1011.82
2019-03-31T00:09:09.932Z,1011.84
2019-03-31T00:10:09.940Z,1011.77
2019-03-31T00:11:09.903Z,1011.79
2019-03-31T00:12:09.869Z,1011.80
2019-03-31T00:13:09.895Z,1011.79
2019-03-31T00:14:09.869Z,1011.80
2019-03-31T00:15:09.841Z,1011.76
2019-03-31T00:16:09.867Z,1011.77
2019-03-31T00:17:09.814Z,1011.74
2019-03-31T00:18:09.899Z,1011.75
2019-03-31T00:19:09.806Z,1011.80
2019-03-31T00:20:09.800Z,1011.77
2019-03-31T00:21:09.787Z,1011.76
2019-03-31T00:22:09.755Z,1011.74
2019-03-31T00:23:09.749Z,1011.77
2019-03-31T00:24:09.744Z,1011.74
2019-03-31T00:25:09.776Z,1011.70
2019-03-31T00:26:09.761Z,1011.74
2019-03-31T00:27:09.722Z,1011.75
2019-03-31T00:28:09.720Z,1011.74
2019-03-31T00:29:09.682Z,1011.78
2019-03-31T00:30:09.689Z,1011.75
2019-03-31T00:31:21.422Z,1011.73
2019-03-31T00:32:10.655Z,1011.77
2019-03-31T00:33:09.650Z,1011.73
2019-03-31T00:34:09.621Z,1011.78
2019-03-31T00:35:09.697Z,1011.76
2019-03-31T00:36:09.627Z,1011.74
2019-03-31T00:37:09.613Z,1011.74
2019-03-31T00:38:09.618Z,1011.76
2019-03-31T00:39:09.583Z,1011.73
2019-03-31T00:40:09.560Z,1011.72
2019-03-31T00:41:09.592Z,1011.72
2019-03-31T00:42:09.625Z,1011.77
2019-03-31T00:43:09.573Z,1011.76
2019-03-31T00:44:09.515Z,1011.77
2019-03-31T00:45:09.514Z,1011.82
2019-03-31T00:46:09.493Z,1011.80
2019-03-31T00:47:09.558Z,1011.86
2019-03-31T00:48:09.482Z,1011.81
2019-03-31T00:49:09.466Z,1011.80
2019-03-31T00:50:09.443Z,1011.82
2019-03-31T00:51:09.438Z,1011.83
2019-03-31T00:52:09.443Z,1011.82
2019-03-31T00:53:09.425Z,1011.84
2019-03-31T00:54:09.426Z,1011.83
2019-03-31T00:55:09.423Z,1011.83
2019-03-31T00:56:09.391Z,1011.73
2019-03-31T00:57:09.380Z,1011.85
2019-03-31T00:58:09.354Z,1011.87
2019-03-31T00:59:09.378Z,1011.83
2019-03-31T01:00:09.331Z,1011.83
2019-03-31T01:01:09.339Z,1011.86
2019-03-31T01:02:09.399Z,1011.88
2019-03-31T01:03:09.302Z,1011.89
2019-03-31T01:04:09.289Z,1011.92
2019-03-31T01:05:09.325Z,1011.88
2019-03-31T01:06:09.262Z,1011.87
2019-03-31T01:07:09.286Z,1011.87
2019-03-31T01:08:09.346Z,1011.88
2019-03-31T01:09:09.233Z,1011.94
2019-03-31T01:10:09.228Z,1011.95
2019-03-31T01:11:09.223Z,1011.95
2019-03-31T01:12:09.219Z,1011.92
2019-03-31T01:13:09.194Z,1011.97
2019-03-31T01:14:09.183Z,1011.96
2019-03-31T01:15:09.195Z,1012.00
2019-03-31T01:16:09.180Z,1011.96
2019-03-31T01:17:09.177Z,1011.99
2019-03-31T01:18:09.174Z,1011.99
2019-03-31T01:19:09.124Z,1011.98
2019-03-31T01:20:09.118Z,1011.98
2019-03-31T01:21:09.116Z,1012.03
2019-03-31T01:22:09.113Z,1012.00
2019-03-31T01:23:09.074Z,1012.04
2019-03-31T01:24:09.072Z,1012.03
2019-03-31T01:25:09.063Z,1012.02
2019-03-31T01:26:09.070Z,1012.06
2019-03-31T01:27:09.069Z,1012.09
2019-03-31T01:28:09.067Z,1012.08
2019-03-31T01:29:09.032Z,1012.08
2019-03-31T01:30:09.011Z,1012.13
2019-03-31T01:31:08.991Z,1012.06
2019-03-31T01:32:09.013Z,1012.10
2019-03-31T01:33:08.994Z,1012.11
2019-03-31T01:34:09.024Z,1012.11
2019-03-31T01:35:08.948Z,1012.15
2019-03-31T01:36:08.937Z,1012.11
2019-03-31T01:37:08.949Z,1012.14
2019-03-31T01:38:09.040Z,1012.22
2019-03-31T01:39:08.944Z,1012.18
2019-03-31T01:40:08.928Z,1012.18
2019-03-31T01:41:08.888Z,1012.21
2019-03-31T01:42:08.889Z,1012.18
2019-03-31T01:43:08.892Z,1012.19
2019-03-31T01:44:08.867Z,1012.21
2019-03-31T01:45:08.872Z,1012.15
2019-03-31T01:46:08.825Z,1012.17
2019-03-31T01:47:08.815Z,1012.15
2019-03-31T01:48:08.824Z,1012.14
2019-03-31T01:49:08.831Z,1012.19
2019-03-31T01:50:08.803Z,1012.20
2019-03-31T01:51:08.780Z,1012.15
2019-03-31T01:52:08.766Z,1012.18
2019-03-31T01:53:08.776Z,1012.17
2019-03-31T01:54:08.732Z,1012.18
2019-03-31T01:55:08.734Z,1012.17
2019-03-31T01:56:08.714Z,1012.20
2019-03-31T01:57:08.697Z,1012.21
2019-03-31T01:58:08.716Z,1012.24
2019-03-31T01:59:08.692Z,1012.24
2019-03-31T02:00:08.666Z,1012.20
2019-03-31T02:01:08.675Z,1012.23
2019-03-31T02:02:08.652Z,1012.22
2019-03-31T02:03:08.674Z,1012.26
2019-03-31T02:04:08.624Z,1012.28
2019-03-31T02:05:08.605Z,1012.25
2019-03-31T02:06:08.610Z,1012.29
2019-03-31T02:07:08.647Z,1012.27
2019-03-31T02:08:08.595Z,1012.31
2019-03-31T02:09:08.566Z,1012.28
2019-03-31T02:10:08.590Z,1012.29
2019-03-31T02:11:08.544Z,1012.25
2019-03-31T02:12:08.545Z,1012.27
2019-03-31T02:13:08.571Z,1012.27
2019-03-31T02:14:08.505Z,1012.29
2019-03-31T02:15:08.496Z,1012.28
2019-03-31T02:16:08.502Z,1012.27
2019-03-31T02:17:08.503Z,1012.31
2019-03-31T02:18:08.500Z,1012.30
2019-03-31T02:19:09.642Z,1012.30
2019-03-31T02:20:08.442Z,1012.28
2019-03-31T02:21:08.461Z,1012.34
2019-03-31T02:22:08.437Z,1012.29
2019-03-31T02:23:08.420Z,1012.34
2019-03-31T02:24:08.459Z,1012.31
2019-03-31T02:25:08.382Z,1012.31
2019-03-31T02:26:08.373Z,1012.36
2019-03-31T02:27:08.384Z,1012.31
2019-03-31T02:28:08.360Z,1012.34
2019-03-31T02:29:08.368Z,1012.28
2019-03-31T02:30:08.352Z,1012.27
2019-03-31T02:31:08.312Z,1012.26
2019-03-31T02:32:22.567Z,1012.28
2019-03-31T02:33:09.301Z,1012.30
2019-03-31T02:34:08.309Z,1012.27
2019-03-31T02:35:08.296Z,1012.25
2019-03-31T02:36:08.276Z,1012.27
2019-03-31T02:37:08.269Z,1012.24
2019-03-31T02:38:08.245Z,1012.33
2019-03-31T02:39:08.272Z,1012.28
2019-03-31T02:40:08.242Z,1012.26
2019-03-31T02:41:08.287Z,1012.25
2019-03-31T02:42:08.243Z,1012.26
2019-03-31T02:43:08.205Z,1012.29
2019-03-31T02:44:08.213Z,1012.25
2019-03-31T02:45:08.229Z,1012.28
2019-03-31T02:46:08.163Z,1012.28
2019-03-31T02:47:08.144Z,1012.20
2019-03-31T02:48:08.125Z,1012.24
2019-03-31T02:49:08.164Z,1012.22
2019-03-31T02:50:08.111Z,1012.23
2019-03-31T02:51:08.115Z,1012.23
2019-03-31T02:52:08.111Z,1012.26
2019-03-31T02:53:08.086Z,1012.27
2019-03-31T02:54:08.125Z,1012.29
2019-03-31T02:55:08.104Z,1012.29
2019-03-31T02:56:08.061Z,1012.30
2019-03-31T02:57:08.099Z,1012.32
2019-03-31T02:58:08.008Z,1012.33
2019-03-31T02:59:08.020Z,1012.31
2019-03-31T03:00:08.007Z,1012.32
2019-03-31T03:01:08.010Z,1012.37
2019-03-31T03:02:07.993Z,1012.35
2019-03-31T03:03:07.969Z,1012.36
2019-03-31T03:04:08.219Z,1012.38
2019-03-31T03:05:18.911Z,1012.41
2019-03-31T03:06:08.949Z,1012.38
2019-03-31T03:07:07.950Z,1012.38
2019-03-31T03:08:07.911Z,1012.45
2019-03-31T03:09:08.019Z,1012.43
2019-03-31T03:10:07.890Z,1012.47
2019-03-31T03:11:07.881Z,1012.45
2019-03-31T03:12:07.864Z,1012.48
2019-03-31T03:13:07.854Z,1012.52
2019-03-31T03:14:07.858Z,1012.49
2019-03-31T03:15:07.835Z,1012.50
2019-03-31T03:16:07.821Z,1012.53
2019-03-31T03:17:07.817Z,1012.53
2019-03-31T03:18:07.816Z,1012.49
2019-03-31T03:19:07.803Z,1012.56
2019-03-31T03:20:07.781Z,1012.55
2019-03-31T03:21:07.773Z,1012.56
2019-03-31T03:22:07.793Z,1012.57
2019-03-31T03:23:07.733Z,1012.54
2019-03-31T03:24:07.760Z,1012.61
2019-03-31T03:25:07.733Z,1012.63
2019-03-31T03:26:07.749Z,1012.57
2019-03-31T03:27:07.699Z,1012.61
2019-03-31T03:28:07.690Z,1012.62
2019-03-31T03:29:07.707Z,1012.60
2019-03-31T03:30:07.683Z,1012.60
2019-03-31T03:31:14.692Z,1012.59
2019-03-31T03:32:08.674Z,1012.66
2019-03-31T03:33:17.584Z,1012.61
2019-03-31T03:34:08.648Z,1012.60
2019-03-31T03:35:07.599Z,1012.66
2019-03-31T03:36:07.595Z,1012.61
2019-03-31T03:37:07.579Z,1012.60
2019-03-31T03:38:07.564Z,1012.65
2019-03-31T03:39:07.572Z,1012.64
2019-03-31T03:40:07.576Z,1012.66
2019-03-31T03:41:07.588Z,1012.69
2019-03-31T03:42:07.529Z,1012.65
2019-03-31T03:43:07.513Z,1012.65
2019-03-31T03:44:07.526Z,1012.65
2019-03-31T03:45:07.488Z,1012.68
2019-03-31T03:46:07.492Z,1012.65
2019-03-31T03:47:07.487Z,1012.70
2019-03-31T03:48:07.563Z,1012.67
2019-03-31T03:49:07.550Z,1012.69
2019-03-31T03:50:07.432Z,1012.72
2019-03-31T03:51:07.433Z,1012.67
2019-03-31T03:52:07.422Z,1012.68
2019-03-31T03:53:07.408Z,1012.69
2019-03-31T03:54:07.396Z,1012.72
2019-03-31T03:55:07.438Z,1012.72
2019-03-31T03:56:07.382Z,1012.77
2019-03-31T03:57:07.363Z,1012.78
2019-03-31T03:58:07.369Z,1012.74
2019-03-31T03:59:07.364Z,1012.78
2019-03-31T04:00:07.357Z,1012.79
2019-03-31T04:01:07.316Z,1012.90
2019-03-31T04:02:07.304Z,1012.85
2019-03-31T04:03:07.280Z,1012.85
2019-03-31T04:04:07.277Z,1012.90
2019-03-31T04:05:07.297Z,1012.91
2019-03-31T04:06:07.272Z,1012.96
2019-03-31T04:07:07.267Z,1012.93
2019-03-31T04:08:07.233Z,1012.95
2019-03-31T04:09:07.237Z,1012.92
2019-03-31T04:10:07.234Z,1012.92
2019-03-31T04:11:07.252Z,1012.90
2019-03-31T04:12:07.212Z,1012.96
2019-03-31T04:13:07.177Z,1012.96
2019-03-31T04:14:07.163Z,1012.95
2019-03-31T04:15:07.163Z,1012.98
2019-03-31T04:16:07.169Z,1012.99
2019-03-31T04:17:07.128Z,1013.04
2019-03-31T04:18:07.111Z,1013.00
2019-03-31T04:19:07.103Z,1013.06
2019-03-31T04:20:07.210Z,1013.05
2019-03-31T04:21:07.099Z,1013.00
2019-03-31T04:22:07.079Z,1013.00
2019-03-31T04:23:07.101Z,1013.07
2019-03-31T04:24:07.051Z,1013.08
2019-03-31T04:25:07.058Z,1013.05
2019-03-31T04:26:07.038Z,1013.05
2019-03-31T04:27:07.049Z,1013.09
2019-03-31T04:28:07.027Z,1013.06
2019-03-31T04:29:07.029Z,1013.05
2019-03-31T04:30:07.017Z,1013.06
2019-03-31T04:31:06.970Z,1013.03
2019-03-31T04:32:06.977Z,1013.10
2019-03-31T04:33:06.954Z,1013.07
2019-03-31T04:34:06.939Z,1013.08
2019-03-31T04:35:06.945Z,1013.12
2019-03-31T04:36:06.951Z,1013.11
2019-03-31T04:37:06.900Z,1013.17
2019-03-31T04:38:06.910Z,1013.17
2019-03-31T04:39:06.917Z,1013.15
2019-03-31T04:40:06.874Z,1013.21
2019-03-31T04:41:06.875Z,1013.19
2019-03-31T04:42:06.847Z,1013.19
2019-03-31T04:43:06.849Z,1013.21
2019-03-31T04:44:06.859Z,1013.23
2019-03-31T04:45:06.885Z,1013.27
2019-03-31T04:46:06.901Z,1013.24
2019-03-31T04:47:06.791Z,1013.26
2019-03-31T04:48:06.785Z,1013.28
2019-03-31T04:49:06.784Z,1013.29
2019-03-31T04:50:06.768Z,1013.28
2019-03-31T04:51:06.906Z,1013.30
2019-03-31T04:52:06.733Z,1013.31
2019-03-31T04:53:06.727Z,1013.32
2019-03-31T04:54:06.746Z,1013.31
2019-03-31T04:55:06.705Z,1013.32
2019-03-31T04:56:06.762Z,1013.40
2019-03-31T04:57:06.670Z,1013.41
2019-03-31T04:58:06.667Z,1013.40
2019-03-31T04:59:06.660Z,1013.45
2019-03-31T05:00:06.653Z,1013.44
2019-03-31T05:01:06.673Z,1013.46
2019-03-31T05:02:06.624Z,1013.46
2019-03-31T05:03:06.637Z,1013.45
2019-03-31T05:04:06.595Z,1013.52
2019-03-31T05:05:06.589Z,1013.50
2019-03-31T05:06:06.604Z,1013.46
2019-03-31T05:07:06.587Z,1013.49
2019-03-31T05:08:06.560Z,1013.56
2019-03-31T05:09:06.553Z,1013.53
2019-03-31T05:10:06.547Z,1013.60
2019-03-31T05:11:06.529Z,1013.65
2019-03-31T05:12:06.533Z,1013.65
2019-03-31T05:13:06.541Z,1013.69
2019-03-31T05:14:06.492Z,1013.72
2019-03-31T05:15:06.471Z,1013.79
2019-03-31T05:16:06.482Z,1013.79
2019-03-31T05:17:06.484Z,1013.78
2019-03-31T05:18:06.463Z,1013.78
2019-03-31T05:19:06.518Z,1013.83
2019-03-31T05:20:06.423Z,1013.84
2019-03-31T05:21:06.481Z,1013.86
2019-03-31T05:22:06.425Z,1013.88
2019-03-31T05:23:06.408Z,1013.91
2019-03-31T05:24:06.377Z,1013.95
2019-03-31T05:25:06.440Z,1013.98
2019-03-31T05:26:06.370Z,1014.03
2019-03-31T05:27:06.359Z,1014.02
2019-03-31T05:28:06.352Z,1014.09
2019-03-31T05:29:06.332Z,1014.08
2019-03-31T05:30:06.329Z,1014.12
2019-03-31T05:31:06.306Z,1014.14
2019-03-31T05:32:06.333Z,1014.22
2019-03-31T05:33:06.277Z,1014.21
2019-03-31T05:34:18.336Z,1014.28
2019-03-31T05:35:07.251Z,1014.25
2019-03-31T05:36:06.236Z,1014.32
2019-03-31T05:37:06.248Z,1014.32
2019-03-31T05:38:06.223Z,1014.39
2019-03-31T05:39:06.231Z,1014.40
2019-03-31T05:40:06.205Z,1014.38
2019-03-31T05:41:06.191Z,1014.43
2019-03-31T05:42:06.195Z,1014.46
2019-03-31T05:43:06.170Z,1014.49
2019-03-31T05:44:06.259Z,1014.47
2019-03-31T05:45:06.152Z,1014.51
2019-03-31T05:46:06.141Z,1014.49
2019-03-31T05:47:06.143Z,1014.54
2019-03-31T05:48:06.107Z,1014.58
2019-03-31T05:49:06.133Z,1014.60
2019-03-31T05:50:06.111Z,1014.55
2019-03-31T05:51:06.089Z,1014.60
2019-03-31T05:52:06.097Z,1014.67
2019-03-31T05:53:06.055Z,1014.66
2019-03-31T05:54:06.045Z,1014.61
2019-03-31T05:55:06.053Z,1014.72
2019-03-31T05:56:06.045Z,1014.75
2019-03-31T05:57:06.037Z,1014.74
2019-03-31T05:58:06.013Z,1014.72
2019-03-31T05:59:05.988Z,1014.72
2019-03-31T06:00:05.980Z,1014.74
2019-03-31T06:01:05.976Z,1014.73
2019-03-31T06:02:05.994Z,1014.77
2019-03-31T06:03:05.962Z,1014.83
2019-03-31T06:04:05.934Z,1014.81
2019-03-31T06:05:05.927Z,1014.77
2019-03-31T06:06:05.910Z,1014.82
2019-03-31T06:07:05.924Z,1014.81
2019-03-31T06:08:06.579Z,1014.87
2019-03-31T06:09:05.922Z,1014.89
2019-03-31T06:10:05.868Z,1014.85
2019-03-31T06:11:05.855Z,1014.85
2019-03-31T06:12:05.882Z,1014.90
2019-03-31T06:13:05.846Z,1014.89
2019-03-31T06:14:05.855Z,1014.90
2019-03-31T06:15:05.815Z,1014.91
2019-03-31T06:16:05.802Z,1014.96
2019-03-31T06:17:05.798Z,1014.99
2019-03-31T06:18:05.807Z,1014.98
2019-03-31T06:19:05.778Z,1015.00
2019-03-31T06:20:05.751Z,1014.95
2019-03-31T06:21:05.748Z,1014.96
2019-03-31T06:22:05.745Z,1014.95
2019-03-31T06:23:05.740Z,1014.89
2019-03-31T06:24:05.758Z,1014.92
2019-03-31T06:25:06.104Z,1014.95
2019-03-31T06:26:05.697Z,1014.92
2019-03-31T06:27:05.674Z,1014.93
2019-03-31T06:28:05.686Z,1014.90
2019-03-31T06:29:05.688Z,1014.94
2019-03-31T06:30:05.659Z,1014.96
2019-03-31T06:31:05.633Z,1015.00
2019-03-31T06:32:05.637Z,1015.01
2019-03-31T06:33:05.632Z,1014.99
2019-03-31T06:34:05.603Z,1015.02
2019-03-31T06:35:05.593Z,1015.04
2019-03-31T06:36:05.651Z,1015.06
2019-03-31T06:37:05.575Z,1015.07
2019-03-31T06:38:05.599Z,1015.09
2019-03-31T06:39:05.541Z,1015.14
2019-03-31T06:40:05.538Z,1015.12
2019-03-31T06:41:05.722Z,1015.15
2019-03-31T06:42:05.578Z,1015.17
2019-03-31T06:43:05.525Z,1015.15
2019-03-31T06:44:05.483Z,1015.21
2019-03-31T06:45:05.512Z,1015.24
2019-03-31T06:46:05.464Z,1015.21
2019-03-31T06:47:05.571Z,1015.19
2019-03-31T06:48:05.579Z,1015.22
2019-03-31T06:49:05.445Z,1015.21
2019-03-31T06:50:05.420Z,1015.25
2019-03-31T06:51:05.412Z,1015.21
2019-03-31T06:52:05.406Z,1015.25
2019-03-31T06:53:05.437Z,1015.27
2019-03-31T06:54:05.415Z,1015.25
2019-03-31T06:55:05.361Z,1015.31
2019-03-31T06:56:05.369Z,1015.28
2019-03-31T06:57:05.352Z,1015.31
2019-03-31T06:58:05.339Z,1015.34
2019-03-31T06:59:05.357Z,1015.29
2019-03-31T07:00:05.327Z,1015.27
2019-03-31T07:01:05.299Z,1015.27
2019-03-31T07:02:05.298Z,1015.29
2019-03-31T07:03:05.289Z,1015.28
2019-03-31T07:04:05.321Z,1015.28
2019-03-31T07:05:05.261Z,1015.33
2019-03-31T07:06:05.255Z,1015.30
2019-03-31T07:07:05.304Z,1015.29
2019-03-31T07:08:05.337Z,1015.30
2019-03-31T07:09:05.290Z,1015.39
2019-03-31T07:10:05.229Z,1015.36
2019-03-31T07:11:05.231Z,1015.33
2019-03-31T07:12:05.248Z,1015.41
2019-03-31T07:13:05.193Z,1015.39
2019-03-31T07:14:06.094Z,1015.41
2019-03-31T07:15:06.121Z,1015.40
2019-03-31T07:16:05.182Z,1015.42
2019-03-31T07:17:05.134Z,1015.41
2019-03-31T07:18:05.147Z,1015.47
2019-03-31T07:19:05.186Z,1015.47
2019-03-31T07:20:05.131Z,1015.43
2019-03-31T07:21:05.125Z,1015.47
2019-03-31T07:22:05.138Z,1015.52
2019-03-31T07:23:05.076Z,1015.58
2019-03-31T07:24:05.125Z,1015.59
2019-03-31T07:25:05.027Z,1015.60
2019-03-31T07:26:05.071Z,1015.64
2019-03-31T07:27:05.043Z,1015.59
2019-03-31T07:28:05.054Z,1015.59
2019-03-31T07:29:05.095Z,1015.62
2019-03-31T07:30:07.208Z,1015.66
2019-03-31T07:31:05.035Z,1015.64
2019-03-31T07:32:04.966Z,1015.70
2019-03-31T07:33:05.088Z,1015.69
2019-03-31T07:34:04.990Z,1015.69
2019-03-31T07:35:17.781Z,1015.74
2019-03-31T07:36:05.957Z,1015.70
2019-03-31T07:37:04.950Z,1015.70
2019-03-31T07:38:04.914Z,1015.67
2019-03-31T07:39:05.020Z,1015.74
2019-03-31T07:40:05.093Z,1015.73
2019-03-31T07:41:12.498Z,1015.71
2019-03-31T07:42:05.910Z,1015.76
2019-03-31T07:43:05.203Z,1015.83
2019-03-31T07:44:04.898Z,1015.82
2019-03-31T07:45:04.962Z,1015.82
2019-03-31T07:46:04.793Z,1015.82
2019-03-31T07:47:04.836Z,1015.85
2019-03-31T07:48:07.945Z,1015.90
2019-03-31T07:49:04.758Z,1015.94
2019-03-31T07:50:04.916Z,1015.95
2019-03-31T07:51:04.753Z,1015.92
2019-03-31T07:52:04.730Z,1015.99
2019-03-31T07:53:04.741Z,1015.94
2019-03-31T07:54:04.735Z,1016.00
2019-03-31T07:55:04.797Z,1015.96
2019-03-31T07:56:04.749Z,1016.00
2019-03-31T07:57:06.965Z,1016.01
2019-03-31T07:58:04.703Z,1016.10
2019-03-31T07:59:04.761Z,1016.02
2019-03-31T08:00:04.700Z,1016.03
2019-03-31T08:01:04.635Z,1016.07
2019-03-31T08:02:04.765Z,1016.10
2019-03-31T08:03:04.596Z,1016.08
2019-03-31T08:04:04.601Z,1016.05
2019-03-31T08:05:04.709Z,1016.01
2019-03-31T08:06:04.593Z,1016.06
2019-03-31T08:07:04.605Z,1016.05
2019-03-31T08:08:04.621Z,1016.03
2019-03-31T08:09:04.558Z,1016.04
2019-03-31T08:10:04.557Z,1016.07
2019-03-31T08:11:04.558Z,1016.07
2019-03-31T08:12:04.516Z,1016.11
2019-03-31T08:13:04.502Z,1016.17
2019-03-31T08:14:04.480Z,1016.18
2019-03-31T08:15:04.528Z,1016.15
2019-03-31T08:16:04.460Z,1016.22
2019-03-31T08:17:04.487Z,1016.26
2019-03-31T08:18:04.443Z,1016.24
2019-03-31T08:19:04.423Z,1016.26
2019-03-31T08:20:04.477Z,1016.24
2019-03-31T08:21:04.442Z,1016.27
2019-03-31T08:22:04.413Z,1016.30
2019-03-31T08:23:04.418Z,1016.30
2019-03-31T08:24:06.688Z,1016.30
2019-03-31T08:25:04.431Z,1016.33
2019-03-31T08:26:04.398Z,1016.35
2019-03-31T08:27:05.690Z,1016.35
2019-03-31T08:28:04.410Z,1016.41
2019-03-31T08:29:04.336Z,1016.36
2019-03-31T08:30:04.377Z,1016.38
2019-03-31T08:31:04.310Z,1016.37
2019-03-31T08:32:04.313Z,1016.36
2019-03-31T08:33:04.295Z,1016.42
2019-03-31T08:34:05.153Z,1016.42
2019-03-31T08:35:04.244Z,1016.38
2019-03-31T08:36:04.613Z,1016.43
2019-03-31T08:37:04.232Z,1016.39
2019-03-31T08:38:04.292Z,1016.46
2019-03-31T08:39:04.204Z,1016.46
2019-03-31T08:40:04.234Z,1016.44
2019-03-31T08:41:04.544Z,1016.50
2019-03-31T08:42:04.164Z,1016.46
2019-03-31T08:43:04.152Z,1016.47
2019-03-31T08:44:04.134Z,1016.47
2019-03-31T08:45:04.131Z,1016.45
2019-03-31T08:46:04.194Z,1016.52
2019-03-31T08:47:04.108Z,1016.49
2019-03-31T08:48:04.098Z,1016.57
2019-03-31T08:49:04.199Z,1016.52
2019-03-31T08:50:04.225Z,1016.53
2019-03-31T08:51:04.122Z,1016.55
2019-03-31T08:52:04.078Z,1016.54
2019-03-31T08:53:04.049Z,1016.56
2019-03-31T08:54:04.039Z,1016.53
2019-03-31T08:55:04.045Z,1016.58
2019-03-31T08:56:04.062Z,1016.62
2019-03-31T08:57:04.000Z,1016.57
2019-03-31T08:58:04.009Z,1016.62
2019-03-31T08:59:03.974Z,1016.64
2019-03-31T09:00:03.960Z,1016.65
2019-03-31T09:01:03.960Z,1016.65
2019-03-31T09:02:04.058Z,1016.65
2019-03-31T09:03:03.994Z,1016.63
2019-03-31T09:04:03.912Z,1016.67
2019-03-31T09:05:03.917Z,1016.63
2019-03-31T09:06:03.979Z,1016.62
2019-03-31T09:07:03.890Z,1016.67
2019-03-31T09:08:03.997Z,1016.67
2019-03-31T09:09:03.870Z,1016.65
2019-03-31T09:10:03.848Z,1016.67
2019-03-31T09:11:03.915Z,1016.66
2019-03-31T09:12:04.179Z,1016.70
2019-03-31T09:13:03.816Z,1016.67
2019-03-31T09:14:03.876Z,1016.69
2019-03-31T09:15:03.845Z,1016.67
2019-03-31T09:16:03.833Z,1016.72
2019-03-31T09:17:03.801Z,1016.66
2019-03-31T09:18:03.805Z,1016.73
2019-03-31T09:19:03.771Z,1016.71
2019-03-31T09:20:03.741Z,1016.66
2019-03-31T09:21:03.767Z,1016.69
2019-03-31T09:22:03.715Z,1016.72
2019-03-31T09:23:03.773Z,1016.71
2019-03-31T09:24:03.704Z,1016.75
2019-03-31T09:25:03.711Z,1016.72
2019-03-31T09:26:03.753Z,1016.75
2019-03-31T09:27:03.662Z,1016.79
2019-03-31T09:28:03.679Z,1016.79
2019-03-31T09:29:03.670Z,1016.80
2019-03-31T09:30:03.697Z,1016.80
2019-03-31T09:31:04.590Z,1016.87
2019-03-31T09:32:04.354Z,1016.86
2019-03-31T09:33:06.706Z,1016.88
2019-03-31T09:34:03.623Z,1016.91
2019-03-31T09:35:03.568Z,1016.90
2019-03-31T09:36:15.582Z,1016.96
2019-03-31T09:37:04.571Z,1016.90
2019-03-31T09:38:03.541Z,1016.92
2019-03-31T09:39:03.528Z,1016.91
2019-03-31T09:40:03.516Z,1016.94
2019-03-31T09:41:03.517Z,1016.91
2019-03-31T09:42:03.523Z,1016.94
2019-03-31T09:43:03.488Z,1016.94
2019-03-31T09:44:03.482Z,1016.93
2019-03-31T09:45:03.493Z,1016.92
2019-03-31T09:46:03.534Z,1016.97
2019-03-31T09:47:03.459Z,1017.00
2019-03-31T09:48:03.442Z,1017.03
2019-03-31T09:49:03.460Z,1017.09
2019-03-31T09:50:03.430Z,1017.05
2019-03-31T09:51:03.404Z,1017.05
2019-03-31T09:52:03.429Z,1017.08
2019-03-31T09:53:03.381Z,1017.12
2019-03-31T09:54:03.364Z,1017.09
2019-03-31T09:55:03.347Z,1017.13
2019-03-31T09:56:03.342Z,1017.11
2019-03-31T09:57:03.352Z,1017.15
2019-03-31T09:58:03.326Z,1017.16
2019-03-31T09:59:03.420Z,1017.17
2019-03-31T10:00:03.310Z,1017.19
2019-03-31T10:01:03.294Z,1017.21
2019-03-31T10:02:03.297Z,1017.20
2019-03-31T10:03:03.300Z,1017.21
2019-03-31T10:04:03.271Z,1017.19
2019-03-31T10:05:03.241Z,1017.15
2019-03-31T10:06:10.461Z,1017.13
2019-03-31T10:07:04.251Z,1017.20
2019-03-31T10:08:03.205Z,1017.15
2019-03-31T10:09:03.188Z,1017.19
2019-03-31T10:10:03.248Z,1017.18
2019-03-31T10:11:03.227Z,1017.18
2019-03-31T10:12:03.178Z,1017.19
2019-03-31T10:13:03.148Z,1017.23
2019-03-31T10:14:03.128Z,1017.20
2019-03-31T10:15:03.122Z,1017.21
2019-03-31T10:16:03.139Z,1017.19
2019-03-31T10:17:03.099Z,1017.22
2019-03-31T10:18:03.150Z,1017.16
2019-03-31T10:19:03.073Z,1017.26
2019-03-31T10:20:03.085Z,1017.25
2019-03-31T10:21:03.064Z,1017.20
2019-03-31T10:22:03.039Z,1017.19
2019-03-31T10:23:03.062Z,1017.21
2019-03-31T10:24:03.102Z,1017.18
2019-03-31T10:25:03.007Z,1017.19
2019-03-31T10:26:02.994Z,1017.18
2019-03-31T10:27:03.010Z,1017.21
2019-03-31T10:28:03.012Z,1017.56
2019-03-31T10:29:03.239Z,1017.54
2019-03-31T10:30:03.099Z,1017.20
2019-03-31T10:31:02.944Z,1017.04
2019-03-31T10:32:02.928Z,1017.05
2019-03-31T10:33:02.947Z,1017.04
2019-03-31T10:34:02.913Z,1017.05
2019-03-31T10:35:02.929Z,1017.05
2019-03-31T10:36:02.882Z,1017.00
2019-03-31T10:37:02.871Z,1017.04
2019-03-31T10:38:02.874Z,1017.03
2019-03-31T10:39:02.902Z,1017.06
2019-03-31T10:40:02.861Z,1017.05
2019-03-31T10:41:02.889Z,1017.10
2019-03-31T10:42:02.814Z,1017.06
2019-03-31T10:43:02.809Z,1017.15
2019-03-31T10:44:02.815Z,1017.09
2019-03-31T10:45:02.787Z,1017.13
2019-03-31T10:46:02.767Z,1017.14
2019-03-31T10:47:02.755Z,1017.16
2019-03-31T10:48:02.760Z,1017.19
2019-03-31T10:49:02.747Z,1017.16
2019-03-31T10:50:02.727Z,1017.18
2019-03-31T10:51:02.732Z,1017.17
2019-03-31T10:52:02.697Z,1017.21
2019-03-31T10:53:02.687Z,1017.24
2019-03-31T10:54:04.556Z,1017.22
2019-03-31T10:55:02.670Z,1017.33
2019-03-31T10:56:02.698Z,1017.27
2019-03-31T10:57:02.643Z,1017.35
2019-03-31T10:58:02.636Z,1017.63
2019-03-31T10:59:02.644Z,1017.15
2019-03-31T11:00:02.623Z,1017.10
2019-03-31T11:01:02.593Z,1017.25
2019-03-31T11:02:02.590Z,1017.46
2019-03-31T11:03:02.650Z,1017.55
2019-03-31T11:04:02.589Z,1017.57
2019-03-31T11:05:02.556Z,1017.59
2019-03-31T11:06:02.549Z,1017.56
2019-03-31T11:07:03.622Z,1017.61
2019-03-31T11:08:02.524Z,1017.59
2019-03-31T11:09:02.574Z,1017.60
2019-03-31T11:10:02.558Z,1017.58
2019-03-31T11:11:02.490Z,1017.60
2019-03-31T11:12:02.492Z,1017.70
2019-03-31T11:13:02.481Z,1017.62
2019-03-31T11:14:02.471Z,1017.67
2019-03-31T11:15:02.485Z,1017.62
2019-03-31T11:16:02.450Z,1017.50
2019-03-31T11:17:02.450Z,1017.32
2019-03-31T11:18:02.437Z,1017.18
2019-03-31T11:19:02.415Z,1017.12
2019-03-31T11:20:02.459Z,1017.11
2019-03-31T11:21:02.389Z,1017.10
2019-03-31T11:22:02.418Z,1017.32
2019-03-31T11:23:02.372Z,1017.11
2019-03-31T11:24:02.348Z,1017.09
2019-03-31T11:25:02.367Z,1017.10
2019-03-31T11:26:02.334Z,1017.08
2019-03-31T11:27:02.320Z,1017.10
2019-03-31T11:28:02.310Z,1017.14
2019-03-31T11:29:02.296Z,1017.03
2019-03-31T11:30:02.326Z,1017.11
2019-03-31T11:31:02.277Z,1017.08
2019-03-31T11:32:02.284Z,1017.08
2019-03-31T11:33:02.260Z,1017.12
2019-03-31T11:34:02.244Z,1017.17
2019-03-31T11:35:02.275Z,1017.18
2019-03-31T11:36:02.223Z,1017.16
2019-03-31T11:37:12.828Z,1017.18
2019-03-31T11:38:03.207Z,1017.19
2019-03-31T11:39:02.207Z,1017.18
2019-03-31T11:40:02.212Z,1017.24
2019-03-31T11:41:02.176Z,1017.15
2019-03-31T11:42:02.149Z,1017.19
2019-03-31T11:43:02.143Z,1017.21
2019-03-31T11:44:02.137Z,1017.22
2019-03-31T11:45:02.168Z,1017.25
2019-03-31T11:46:02.106Z,1017.27
2019-03-31T11:47:02.111Z,1017.27
2019-03-31T11:48:02.103Z,1017.26
2019-03-31T11:49:02.070Z,1017.28
2019-03-31T11:50:02.171Z,1017.28
2019-03-31T11:51:02.084Z,1017.23
2019-03-31T11:52:02.049Z,1017.29
2019-03-31T11:53:02.171Z,1017.63
2019-03-31T11:54:02.019Z,1017.64
2019-03-31T11:55:02.033Z,1017.19
2019-03-31T11:56:02.048Z,1017.23
2019-03-31T11:57:01.997Z,1017.26
2019-03-31T11:58:01.967Z,1017.67
2019-03-31T11:59:02.075Z,1017.60
2019-03-31T12:00:01.992Z,1017.58
2019-03-31T12:01:01.979Z,1017.60
2019-03-31T12:02:01.933Z,1017.57
2019-03-31T12:03:01.938Z,1017.52
2019-03-31T12:04:01.940Z,1017.53
2019-03-31T12:05:01.892Z,1017.49